sensor_id;sensor_type;location;lat;lon;timestamp;P1;durP1;ratioP1;P2;durP2;ratioP2
69594;SDS011;56800;52.142;5.364;2024-01-06T00:00:06;11.65;;;7.43;;
69594;SDS011;56800;52.142;5.364;2024-01-06T00:02:34;12.63;;;7.75;;
69594;SDS011;56800;52.142;5.364;2024-01-06T00:05:00;11.77;;;8.05;;
69594;SDS011;56800;52.142;5.364;2024-01-06T00:07:27;10.53;;;7.47;;
69594;SDS011;56800;52.142;5.364;2024-01-06T00:09:54;11.15;;;7.43;;
69594;SDS011;56800;52.142;5.364;2024-01-06T00:12:20;9.23;;;6.93;;
69594;SDS011;56800;52.142;5.364;2024-01-06T00:14:47;9.82;;;6.30;;
69594;SDS011;56800;52.142;5.364;2024-01-06T00:17:15;10.57;;;7.07;;
69594;SDS011;56800;52.142;5.364;2024-01-06T00:19:42;10.57;;;6.97;;
69594;SDS011;56800;52.142;5.364;2024-01-06T00:22:09;11.50;;;6.90;;
69594;SDS011;56800;52.142;5.364;2024-01-06T00:24:36;10.10;;;6.72;;
69594;SDS011;56800;52.142;5.364;2024-01-06T00:27:02;9.65;;;6.50;;
69594;SDS011;56800;52.142;5.364;2024-01-06T00:29:29;8.65;;;6.30;;
69594;SDS011;56800;52.142;5.364;2024-01-06T00:31:56;11.33;;;6.33;;
69594;SDS011;56800;52.142;5.364;2024-01-06T00:34:23;9.73;;;5.70;;
69594;SDS011;56800;52.142;5.364;2024-01-06T00:36:49;9.40;;;6.15;;
69594;SDS011;56800;52.142;5.364;2024-01-06T00:39:16;10.35;;;6.40;;
69594;SDS011;56800;52.142;5.364;2024-01-06T00:41:43;9.43;;;6.50;;
69594;SDS011;56800;52.142;5.364;2024-01-06T00:44:10;9.30;;;6.03;;
69594;SDS011;56800;52.142;5.364;2024-01-06T00:46:36;10.38;;;6.03;;
69594;SDS011;56800;52.142;5.364;2024-01-06T00:49:04;9.50;;;6.55;;
69594;SDS011;56800;52.142;5.364;2024-01-06T00:51:30;10.55;;;6.93;;
69594;SDS011;56800;52.142;5.364;2024-01-06T00:53:57;11.88;;;7.43;;
69594;SDS011;56800;52.142;5.364;2024-01-06T00:56:24;9.77;;;6.97;;
69594;SDS011;56800;52.142;5.364;2024-01-06T00:58:53;10.57;;;7.13;;
69594;SDS011;56800;52.142;5.364;2024-01-06T01:01:19;11.13;;;7.15;;
69594;SDS011;56800;52.142;5.364;2024-01-06T01:03:47;10.02;;;6.68;;
69594;SDS011;56800;52.142;5.364;2024-01-06T01:06:14;11.10;;;7.43;;
69594;SDS011;56800;52.142;5.364;2024-01-06T01:08:40;11.00;;;7.43;;
69594;SDS011;56800;52.142;5.364;2024-01-06T01:11:07;9.32;;;6.95;;
69594;SDS011;56800;52.142;5.364;2024-01-06T01:13:34;8.95;;;7.15;;
69594;SDS011;56800;52.142;5.364;2024-01-06T01:16:00;11.10;;;7.57;;
69594;SDS011;56800;52.142;5.364;2024-01-06T01:18:29;8.43;;;6.40;;
69594;SDS011;56800;52.142;5.364;2024-01-06T01:20:56;10.77;;;7.47;;
69594;SDS011;56800;52.142;5.364;2024-01-06T01:23:22;9.77;;;7.20;;
69594;SDS011;56800;52.142;5.364;2024-01-06T01:25:49;10.18;;;7.13;;
69594;SDS011;56800;52.142;5.364;2024-01-06T01:28:16;9.98;;;6.47;;
69594;SDS011;56800;52.142;5.364;2024-01-06T01:30:42;9.77;;;6.40;;
69594;SDS011;56800;52.142;5.364;2024-01-06T01:33:09;11.77;;;6.90;;
69594;SDS011;56800;52.142;5.364;2024-01-06T01:35:36;12.32;;;6.80;;
69594;SDS011;56800;52.142;5.364;2024-01-06T01:38:03;12.52;;;7.25;;
69594;SDS011;56800;52.142;5.364;2024-01-06T01:40:30;13.90;;;8.38;;
69594;SDS011;56800;52.142;5.364;2024-01-06T01:42:56;15.02;;;8.55;;
69594;SDS011;56800;52.142;5.364;2024-01-06T01:45:23;12.40;;;8.23;;
69594;SDS011;56800;52.142;5.364;2024-01-06T01:47:50;11.77;;;8.40;;
69594;SDS011;56800;52.142;5.364;2024-01-06T01:50:17;12.55;;;8.82;;
69594;SDS011;56800;52.142;5.364;2024-01-06T01:52:46;12.32;;;8.18;;
69594;SDS011;56800;52.142;5.364;2024-01-06T01:55:13;12.98;;;8.20;;
69594;SDS011;56800;52.142;5.364;2024-01-06T01:57:39;11.40;;;7.93;;
69594;SDS011;56800;52.142;5.364;2024-01-06T02:00:07;15.55;;;8.15;;
69594;SDS011;56800;52.142;5.364;2024-01-06T02:02:34;9.40;;;7.40;;
69594;SDS011;56800;52.142;5.364;2024-01-06T02:05:01;10.15;;;6.22;;
69594;SDS011;56800;52.142;5.364;2024-01-06T02:07:28;8.55;;;6.25;;
69594;SDS011;56800;52.142;5.364;2024-01-06T02:09:55;8.73;;;6.10;;
69594;SDS011;56800;52.142;5.364;2024-01-06T02:12:22;7.85;;;5.75;;
69594;SDS011;56800;52.142;5.364;2024-01-06T02:14:48;9.55;;;5.65;;
69594;SDS011;56800;52.142;5.364;2024-01-06T02:17:15;11.60;;;6.57;;
69594;SDS011;56800;52.142;5.364;2024-01-06T02:19:42;9.55;;;6.55;;
69594;SDS011;56800;52.142;5.364;2024-01-06T02:22:09;9.60;;;7.03;;
69594;SDS011;56800;52.142;5.364;2024-01-06T02:24:35;9.68;;;6.15;;
69594;SDS011;56800;52.142;5.364;2024-01-06T02:27:02;8.77;;;6.00;;
69594;SDS011;56800;52.142;5.364;2024-01-06T02:29:29;10.43;;;6.57;;
69594;SDS011;56800;52.142;5.364;2024-01-06T02:31:56;9.50;;;6.50;;
69594;SDS011;56800;52.142;5.364;2024-01-06T02:34:22;9.87;;;6.47;;
69594;SDS011;56800;52.142;5.364;2024-01-06T02:36:49;10.00;;;6.80;;
69594;SDS011;56800;52.142;5.364;2024-01-06T02:39:16;10.50;;;7.85;;
69594;SDS011;56800;52.142;5.364;2024-01-06T02:41:43;9.68;;;6.90;;
69594;SDS011;56800;52.142;5.364;2024-01-06T02:44:09;10.38;;;7.45;;
69594;SDS011;56800;52.142;5.364;2024-01-06T02:46:39;10.50;;;7.30;;
69594;SDS011;56800;52.142;5.364;2024-01-06T02:49:06;12.38;;;7.68;;
69594;SDS011;56800;52.142;5.364;2024-01-06T02:51:34;11.82;;;7.50;;
69594;SDS011;56800;52.142;5.364;2024-01-06T02:54:00;11.07;;;7.10;;
69594;SDS011;56800;52.142;5.364;2024-01-06T02:56:27;11.90;;;7.32;;
69594;SDS011;56800;52.142;5.364;2024-01-06T02:58:54;11.13;;;7.50;;
69594;SDS011;56800;52.142;5.364;2024-01-06T03:01:20;8.52;;;6.10;;
69594;SDS011;56800;52.142;5.364;2024-01-06T03:03:47;12.45;;;6.88;;
69594;SDS011;56800;52.142;5.364;2024-01-06T03:06:14;9.25;;;6.32;;
69594;SDS011;56800;52.142;5.364;2024-01-06T03:08:41;11.25;;;6.82;;
69594;SDS011;56800;52.142;5.364;2024-01-06T03:11:08;8.20;;;5.80;;
69594;SDS011;56800;52.142;5.364;2024-01-06T03:13:34;12.63;;;6.18;;
69594;SDS011;56800;52.142;5.364;2024-01-06T03:16:03;8.55;;;5.68;;
69594;SDS011;56800;52.142;5.364;2024-01-06T03:18:31;8.50;;;5.82;;
69594;SDS011;56800;52.142;5.364;2024-01-06T03:20:58;8.95;;;5.70;;
69594;SDS011;56800;52.142;5.364;2024-01-06T03:23:25;8.37;;;5.47;;
69594;SDS011;56800;52.142;5.364;2024-01-06T03:25:51;9.30;;;5.70;;
69594;SDS011;56800;52.142;5.364;2024-01-06T03:28:18;9.45;;;5.63;;
69594;SDS011;56800;52.142;5.364;2024-01-06T03:30:45;10.73;;;5.40;;
69594;SDS011;56800;52.142;5.364;2024-01-06T03:33:12;7.57;;;5.20;;
69594;SDS011;56800;52.142;5.364;2024-01-06T03:35:39;8.00;;;4.97;;
69594;SDS011;56800;52.142;5.364;2024-01-06T03:38:05;8.70;;;5.53;;
69594;SDS011;56800;52.142;5.364;2024-01-06T03:40:32;10.13;;;6.97;;
69594;SDS011;56800;52.142;5.364;2024-01-06T03:42:59;11.15;;;6.38;;
69594;SDS011;56800;52.142;5.364;2024-01-06T03:45:26;10.43;;;5.93;;
69594;SDS011;56800;52.142;5.364;2024-01-06T03:47:53;10.07;;;6.53;;
69594;SDS011;56800;52.142;5.364;2024-01-06T03:50:20;9.85;;;6.93;;
69594;SDS011;56800;52.142;5.364;2024-01-06T03:52:47;11.73;;;7.05;;
69594;SDS011;56800;52.142;5.364;2024-01-06T03:55:15;12.27;;;6.90;;
69594;SDS011;56800;52.142;5.364;2024-01-06T03:57:42;11.32;;;6.50;;
69594;SDS011;56800;52.142;5.364;2024-01-06T04:00:09;11.37;;;7.40;;
69594;SDS011;56800;52.142;5.364;2024-01-06T04:02:36;10.55;;;7.07;;
69594;SDS011;56800;52.142;5.364;2024-01-06T04:05:03;11.73;;;7.35;;
69594;SDS011;56800;52.142;5.364;2024-01-06T04:07:31;13.48;;;7.60;;
69594;SDS011;56800;52.142;5.364;2024-01-06T04:09:58;11.40;;;8.10;;
69594;SDS011;56800;52.142;5.364;2024-01-06T04:12:25;10.97;;;6.83;;
69594;SDS011;56800;52.142;5.364;2024-01-06T04:14:52;8.93;;;6.78;;
69594;SDS011;56800;52.142;5.364;2024-01-06T04:17:19;10.68;;;7.22;;
69594;SDS011;56800;52.142;5.364;2024-01-06T04:19:46;9.27;;;6.60;;
69594;SDS011;56800;52.142;5.364;2024-01-06T04:22:12;10.05;;;6.25;;
69594;SDS011;56800;52.142;5.364;2024-01-06T04:24:39;8.03;;;5.90;;
69594;SDS011;56800;52.142;5.364;2024-01-06T04:27:07;8.90;;;6.10;;
69594;SDS011;56800;52.142;5.364;2024-01-06T04:29:33;9.57;;;5.47;;
69594;SDS011;56800;52.142;5.364;2024-01-06T04:32:00;7.75;;;5.60;;
69594;SDS011;56800;52.142;5.364;2024-01-06T04:34:27;10.32;;;5.97;;
69594;SDS011;56800;52.142;5.364;2024-01-06T04:36:54;9.43;;;5.00;;
69594;SDS011;56800;52.142;5.364;2024-01-06T04:39:20;8.52;;;5.38;;
69594;SDS011;56800;52.142;5.364;2024-01-06T04:41:47;9.05;;;5.88;;
69594;SDS011;56800;52.142;5.364;2024-01-06T04:44:14;8.73;;;5.78;;
69594;SDS011;56800;52.142;5.364;2024-01-06T04:46:41;9.18;;;6.03;;
69594;SDS011;56800;52.142;5.364;2024-01-06T04:49:07;10.07;;;6.63;;
69594;SDS011;56800;52.142;5.364;2024-01-06T04:51:34;10.10;;;6.43;;
69594;SDS011;56800;52.142;5.364;2024-01-06T04:54:01;9.73;;;6.80;;
69594;SDS011;56800;52.142;5.364;2024-01-06T04:56:27;9.57;;;6.30;;
69594;SDS011;56800;52.142;5.364;2024-01-06T04:58:55;11.13;;;7.03;;
69594;SDS011;56800;52.142;5.364;2024-01-06T05:01:23;9.67;;;6.40;;
69594;SDS011;56800;52.142;5.364;2024-01-06T05:03:50;11.55;;;6.78;;
69594;SDS011;56800;52.142;5.364;2024-01-06T05:06:17;11.40;;;6.40;;
69594;SDS011;56800;52.142;5.364;2024-01-06T05:08:44;10.40;;;6.45;;
69594;SDS011;56800;52.142;5.364;2024-01-06T05:11:11;11.18;;;6.88;;
69594;SDS011;56800;52.142;5.364;2024-01-06T05:13:38;12.63;;;7.20;;
69594;SDS011;56800;52.142;5.364;2024-01-06T05:16:05;12.35;;;7.35;;
69594;SDS011;56800;52.142;5.364;2024-01-06T05:18:33;10.77;;;6.80;;
69594;SDS011;56800;52.142;5.364;2024-01-06T05:21:00;13.00;;;6.93;;
69594;SDS011;56800;52.142;5.364;2024-01-06T05:23:28;12.30;;;7.35;;
69594;SDS011;56800;52.142;5.364;2024-01-06T05:25:55;11.47;;;6.63;;
69594;SDS011;56800;52.142;5.364;2024-01-06T05:28:21;12.00;;;7.25;;
69594;SDS011;56800;52.142;5.364;2024-01-06T05:30:48;12.27;;;7.63;;
69594;SDS011;56800;52.142;5.364;2024-01-06T05:33:15;13.57;;;7.72;;
69594;SDS011;56800;52.142;5.364;2024-01-06T05:35:42;12.88;;;7.90;;
69594;SDS011;56800;52.142;5.364;2024-01-06T05:38:09;12.57;;;7.67;;
69594;SDS011;56800;52.142;5.364;2024-01-06T05:40:36;11.35;;;7.32;;
69594;SDS011;56800;52.142;5.364;2024-01-06T05:43:02;14.45;;;8.00;;
69594;SDS011;56800;52.142;5.364;2024-01-06T05:45:29;15.07;;;8.13;;
69594;SDS011;56800;52.142;5.364;2024-01-06T05:47:56;12.48;;;8.38;;
69594;SDS011;56800;52.142;5.364;2024-01-06T05:50:23;14.37;;;7.70;;
69594;SDS011;56800;52.142;5.364;2024-01-06T05:52:50;13.82;;;7.63;;
69594;SDS011;56800;52.142;5.364;2024-01-06T05:55:18;13.40;;;8.70;;
69594;SDS011;56800;52.142;5.364;2024-01-06T05:57:45;18.80;;;8.27;;
69594;SDS011;56800;52.142;5.364;2024-01-06T06:00:12;12.63;;;8.30;;
69594;SDS011;56800;52.142;5.364;2024-01-06T06:02:40;14.93;;;8.43;;
69594;SDS011;56800;52.142;5.364;2024-01-06T06:05:07;16.30;;;9.05;;
69594;SDS011;56800;52.142;5.364;2024-01-06T06:07:33;14.93;;;8.60;;
69594;SDS011;56800;52.142;5.364;2024-01-06T06:10:06;12.80;;;7.80;;
69594;SDS011;56800;52.142;5.364;2024-01-06T06:12:35;12.35;;;7.45;;
69594;SDS011;56800;52.142;5.364;2024-01-06T06:15:02;15.63;;;8.60;;
69594;SDS011;56800;52.142;5.364;2024-01-06T06:17:30;13.32;;;8.65;;
69594;SDS011;56800;52.142;5.364;2024-01-06T06:19:57;13.70;;;7.63;;
69594;SDS011;56800;52.142;5.364;2024-01-06T06:22:25;14.27;;;7.82;;
69594;SDS011;56800;52.142;5.364;2024-01-06T06:24:56;15.77;;;8.38;;
69594;SDS011;56800;52.142;5.364;2024-01-06T06:27:24;12.57;;;7.83;;
69594;SDS011;56800;52.142;5.364;2024-01-06T06:29:51;12.02;;;7.78;;
69594;SDS011;56800;52.142;5.364;2024-01-06T06:32:18;12.18;;;8.23;;
69594;SDS011;56800;52.142;5.364;2024-01-06T06:34:45;12.32;;;8.35;;
69594;SDS011;56800;52.142;5.364;2024-01-06T06:37:11;12.18;;;7.93;;
69594;SDS011;56800;52.142;5.364;2024-01-06T06:39:38;12.50;;;7.43;;
69594;SDS011;56800;52.142;5.364;2024-01-06T06:42:05;14.40;;;7.82;;
69594;SDS011;56800;52.142;5.364;2024-01-06T06:44:32;12.13;;;7.90;;
69594;SDS011;56800;52.142;5.364;2024-01-06T06:46:58;14.20;;;8.10;;
69594;SDS011;56800;52.142;5.364;2024-01-06T06:49:25;12.05;;;7.28;;
69594;SDS011;56800;52.142;5.364;2024-01-06T06:51:52;13.43;;;7.43;;
69594;SDS011;56800;52.142;5.364;2024-01-06T06:54:19;12.43;;;7.75;;
69594;SDS011;56800;52.142;5.364;2024-01-06T06:56:45;13.23;;;7.68;;
69594;SDS011;56800;52.142;5.364;2024-01-06T06:59:12;13.40;;;7.53;;
69594;SDS011;56800;52.142;5.364;2024-01-06T07:01:39;10.07;;;7.13;;
69594;SDS011;56800;52.142;5.364;2024-01-06T07:04:06;12.53;;;6.47;;
69594;SDS011;56800;52.142;5.364;2024-01-06T07:06:33;10.73;;;7.18;;
69594;SDS011;56800;52.142;5.364;2024-01-06T07:09:00;10.98;;;7.10;;
69594;SDS011;56800;52.142;5.364;2024-01-06T07:11:26;15.02;;;6.93;;
69594;SDS011;56800;52.142;5.364;2024-01-06T07:13:53;11.80;;;7.25;;
69594;SDS011;56800;52.142;5.364;2024-01-06T07:16:20;10.57;;;6.13;;
69594;SDS011;56800;52.142;5.364;2024-01-06T07:18:47;11.00;;;6.82;;
69594;SDS011;56800;52.142;5.364;2024-01-06T07:21:14;12.85;;;7.00;;
69594;SDS011;56800;52.142;5.364;2024-01-06T07:23:41;10.50;;;6.20;;
69594;SDS011;56800;52.142;5.364;2024-01-06T07:26:08;12.40;;;7.03;;
69594;SDS011;56800;52.142;5.364;2024-01-06T07:28:35;9.00;;;5.87;;
69594;SDS011;56800;52.142;5.364;2024-01-06T07:31:02;10.10;;;5.78;;
69594;SDS011;56800;52.142;5.364;2024-01-06T07:33:31;10.77;;;5.88;;
69594;SDS011;56800;52.142;5.364;2024-01-06T07:35:58;12.30;;;5.68;;
69594;SDS011;56800;52.142;5.364;2024-01-06T07:38:24;10.10;;;5.82;;
69594;SDS011;56800;52.142;5.364;2024-01-06T07:40:51;9.97;;;6.10;;
69594;SDS011;56800;52.142;5.364;2024-01-06T07:43:18;10.55;;;5.90;;
69594;SDS011;56800;52.142;5.364;2024-01-06T07:45:44;10.55;;;6.20;;
69594;SDS011;56800;52.142;5.364;2024-01-06T07:48:11;13.25;;;5.80;;
69594;SDS011;56800;52.142;5.364;2024-01-06T07:50:38;10.05;;;5.40;;
69594;SDS011;56800;52.142;5.364;2024-01-06T07:53:05;8.43;;;5.00;;
69594;SDS011;56800;52.142;5.364;2024-01-06T07:55:31;10.13;;;5.72;;
69594;SDS011;56800;52.142;5.364;2024-01-06T07:57:58;12.35;;;6.18;;
69594;SDS011;56800;52.142;5.364;2024-01-06T08:00:25;12.20;;;5.90;;
69594;SDS011;56800;52.142;5.364;2024-01-06T08:02:52;9.70;;;6.10;;
69594;SDS011;56800;52.142;5.364;2024-01-06T08:05:19;10.30;;;6.30;;
69594;SDS011;56800;52.142;5.364;2024-01-06T08:07:46;9.50;;;6.20;;
69594;SDS011;56800;52.142;5.364;2024-01-06T08:10:13;12.68;;;6.05;;
69594;SDS011;56800;52.142;5.364;2024-01-06T08:12:39;15.73;;;6.33;;
69594;SDS011;56800;52.142;5.364;2024-01-06T08:15:07;11.18;;;5.60;;
69594;SDS011;56800;52.142;5.364;2024-01-06T08:17:35;9.30;;;6.28;;
69594;SDS011;56800;52.142;5.364;2024-01-06T08:20:04;11.32;;;5.68;;
69594;SDS011;56800;52.142;5.364;2024-01-06T08:22:31;9.98;;;5.82;;
69594;SDS011;56800;52.142;5.364;2024-01-06T08:24:58;12.30;;;6.30;;
69594;SDS011;56800;52.142;5.364;2024-01-06T08:27:24;12.43;;;6.32;;
69594;SDS011;56800;52.142;5.364;2024-01-06T08:29:51;13.45;;;6.15;;
69594;SDS011;56800;52.142;5.364;2024-01-06T08:32:18;16.60;;;6.47;;
69594;SDS011;56800;52.142;5.364;2024-01-06T08:34:45;11.50;;;6.18;;
69594;SDS011;56800;52.142;5.364;2024-01-06T08:37:12;10.63;;;6.37;;
69594;SDS011;56800;52.142;5.364;2024-01-06T08:39:39;12.73;;;6.55;;
69594;SDS011;56800;52.142;5.364;2024-01-06T08:42:07;11.52;;;6.22;;
69594;SDS011;56800;52.142;5.364;2024-01-06T08:44:34;10.30;;;6.15;;
69594;SDS011;56800;52.142;5.364;2024-01-06T08:47:01;12.93;;;5.68;;
69594;SDS011;56800;52.142;5.364;2024-01-06T08:49:29;14.17;;;6.30;;
69594;SDS011;56800;52.142;5.364;2024-01-06T08:52:20;9.80;;;5.55;;
69594;SDS011;56800;52.142;5.364;2024-01-06T08:54:47;14.40;;;5.85;;
69594;SDS011;56800;52.142;5.364;2024-01-06T08:57:15;11.70;;;6.13;;
69594;SDS011;56800;52.142;5.364;2024-01-06T08:59:42;12.18;;;6.18;;
69594;SDS011;56800;52.142;5.364;2024-01-06T09:02:11;9.77;;;5.80;;
69594;SDS011;56800;52.142;5.364;2024-01-06T09:04:38;9.07;;;5.72;;
69594;SDS011;56800;52.142;5.364;2024-01-06T09:07:05;12.90;;;6.30;;
69594;SDS011;56800;52.142;5.364;2024-01-06T09:09:32;10.82;;;6.15;;
69594;SDS011;56800;52.142;5.364;2024-01-06T09:11:59;12.20;;;6.28;;
69594;SDS011;56800;52.142;5.364;2024-01-06T09:14:26;14.43;;;6.00;;
69594;SDS011;56800;52.142;5.364;2024-01-06T09:16:53;11.85;;;6.13;;
69594;SDS011;56800;52.142;5.364;2024-01-06T09:19:20;10.55;;;5.78;;
69594;SDS011;56800;52.142;5.364;2024-01-06T09:21:48;9.40;;;5.65;;
69594;SDS011;56800;52.142;5.364;2024-01-06T09:24:15;11.73;;;5.88;;
69594;SDS011;56800;52.142;5.364;2024-01-06T09:26:42;12.80;;;5.73;;
69594;SDS011;56800;52.142;5.364;2024-01-06T09:29:10;9.13;;;5.43;;
69594;SDS011;56800;52.142;5.364;2024-01-06T09:31:38;11.75;;;5.63;;
69594;SDS011;56800;52.142;5.364;2024-01-06T09:34:07;13.43;;;6.22;;
69594;SDS011;56800;52.142;5.364;2024-01-06T09:36:36;9.63;;;5.32;;
69594;SDS011;56800;52.142;5.364;2024-01-06T09:39:03;9.90;;;5.60;;
69594;SDS011;56800;52.142;5.364;2024-01-06T09:41:31;11.65;;;5.10;;
69594;SDS011;56800;52.142;5.364;2024-01-06T09:43:58;8.98;;;5.10;;
69594;SDS011;56800;52.142;5.364;2024-01-06T09:46:25;9.13;;;5.18;;
69594;SDS011;56800;52.142;5.364;2024-01-06T09:48:54;10.63;;;5.13;;
69594;SDS011;56800;52.142;5.364;2024-01-06T09:51:22;11.13;;;5.17;;
69594;SDS011;56800;52.142;5.364;2024-01-06T09:53:59;12.60;;;5.35;;
69594;SDS011;56800;52.142;5.364;2024-01-06T09:56:33;7.32;;;4.95;;
69594;SDS011;56800;52.142;5.364;2024-01-06T09:59:00;8.40;;;4.70;;
69594;SDS011;56800;52.142;5.364;2024-01-06T10:01:28;10.70;;;4.93;;
69594;SDS011;56800;52.142;5.364;2024-01-06T10:03:54;9.87;;;4.37;;
69594;SDS011;56800;52.142;5.364;2024-01-06T10:06:22;9.60;;;4.60;;
69594;SDS011;56800;52.142;5.364;2024-01-06T10:08:49;7.47;;;4.70;;
69594;SDS011;56800;52.142;5.364;2024-01-06T10:11:24;11.27;;;4.55;;
69594;SDS011;56800;52.142;5.364;2024-01-06T10:13:50;6.53;;;4.50;;
69594;SDS011;56800;52.142;5.364;2024-01-06T10:16:18;10.37;;;4.53;;
69594;SDS011;56800;52.142;5.364;2024-01-06T10:18:45;10.93;;;4.80;;
69594;SDS011;56800;52.142;5.364;2024-01-06T10:21:19;11.63;;;5.25;;
69594;SDS011;56800;52.142;5.364;2024-01-06T10:23:48;10.70;;;5.63;;
69594;SDS011;56800;52.142;5.364;2024-01-06T10:26:15;10.90;;;4.95;;
69594;SDS011;56800;52.142;5.364;2024-01-06T10:28:42;8.30;;;5.10;;
69594;SDS011;56800;52.142;5.364;2024-01-06T10:31:09;13.07;;;5.63;;
69594;SDS011;56800;52.142;5.364;2024-01-06T10:33:36;8.75;;;5.40;;
69594;SDS011;56800;52.142;5.364;2024-01-06T10:36:03;11.35;;;5.43;;
69594;SDS011;56800;52.142;5.364;2024-01-06T10:38:32;9.57;;;5.22;;
69594;SDS011;56800;52.142;5.364;2024-01-06T10:41:01;10.80;;;4.90;;
69594;SDS011;56800;52.142;5.364;2024-01-06T10:43:34;10.27;;;5.68;;
69594;SDS011;56800;52.142;5.364;2024-01-06T10:46:04;9.07;;;5.18;;
69594;SDS011;56800;52.142;5.364;2024-01-06T10:48:32;9.18;;;5.47;;
69594;SDS011;56800;52.142;5.364;2024-01-06T10:51:02;15.60;;;5.80;;
69594;SDS011;56800;52.142;5.364;2024-01-06T10:53:33;9.47;;;5.43;;
69594;SDS011;56800;52.142;5.364;2024-01-06T10:56:06;8.25;;;5.05;;
69594;SDS011;56800;52.142;5.364;2024-01-06T10:58:38;9.52;;;5.13;;
69594;SDS011;56800;52.142;5.364;2024-01-06T11:01:15;10.02;;;5.03;;
69594;SDS011;56800;52.142;5.364;2024-01-06T11:03:50;10.85;;;5.72;;
69594;SDS011;56800;52.142;5.364;2024-01-06T11:06:17;8.63;;;5.10;;
69594;SDS011;56800;52.142;5.364;2024-01-06T11:08:50;10.38;;;5.63;;
69594;SDS011;56800;52.142;5.364;2024-01-06T11:11:17;11.77;;;6.00;;
69594;SDS011;56800;52.142;5.364;2024-01-06T11:13:46;9.18;;;5.72;;
69594;SDS011;56800;52.142;5.364;2024-01-06T11:16:33;10.32;;;5.43;;
69594;SDS011;56800;52.142;5.364;2024-01-06T11:19:01;9.37;;;5.37;;
69594;SDS011;56800;52.142;5.364;2024-01-06T11:21:51;10.82;;;5.72;;
69594;SDS011;56800;52.142;5.364;2024-01-06T11:24:18;11.57;;;6.07;;
69594;SDS011;56800;52.142;5.364;2024-01-06T11:26:51;13.88;;;5.55;;
69594;SDS011;56800;52.142;5.364;2024-01-06T11:29:19;9.30;;;5.70;;
69594;SDS011;56800;52.142;5.364;2024-01-06T11:34:51;9.40;;;5.50;;
69594;SDS011;56800;52.142;5.364;2024-01-06T11:37:23;11.07;;;5.57;;
69594;SDS011;56800;52.142;5.364;2024-01-06T11:39:54;8.60;;;5.53;;
69594;SDS011;56800;52.142;5.364;2024-01-06T11:42:21;10.68;;;5.68;;
69594;SDS011;56800;52.142;5.364;2024-01-06T11:44:57;11.20;;;5.00;;
69594;SDS011;56800;52.142;5.364;2024-01-06T11:47:28;10.73;;;5.28;;
69594;SDS011;56800;52.142;5.364;2024-01-06T11:49:57;13.50;;;5.90;;
69594;SDS011;56800;52.142;5.364;2024-01-06T11:52:26;8.65;;;4.85;;
69594;SDS011;56800;52.142;5.364;2024-01-06T11:54:56;8.77;;;5.47;;
69594;SDS011;56800;52.142;5.364;2024-01-06T11:57:25;13.90;;;5.37;;
69594;SDS011;56800;52.142;5.364;2024-01-06T11:59:53;10.27;;;5.43;;
69594;SDS011;56800;52.142;5.364;2024-01-06T12:02:20;8.98;;;5.05;;
69594;SDS011;56800;52.142;5.364;2024-01-06T12:04:51;7.57;;;5.35;;
69594;SDS011;56800;52.142;5.364;2024-01-06T12:07:19;11.65;;;5.25;;
69594;SDS011;56800;52.142;5.364;2024-01-06T12:09:49;12.10;;;5.13;;
69594;SDS011;56800;52.142;5.364;2024-01-06T12:12:17;10.35;;;4.70;;
69594;SDS011;56800;52.142;5.364;2024-01-06T12:14:44;9.85;;;4.82;;
69594;SDS011;56800;52.142;5.364;2024-01-06T12:17:14;7.88;;;4.82;;
69594;SDS011;56800;52.142;5.364;2024-01-06T12:19:41;9.15;;;4.65;;
69594;SDS011;56800;52.142;5.364;2024-01-06T12:22:44;7.50;;;4.70;;
69594;SDS011;56800;52.142;5.364;2024-01-06T12:25:11;10.13;;;4.80;;
69594;SDS011;56800;52.142;5.364;2024-01-06T12:27:42;10.55;;;5.07;;
69594;SDS011;56800;52.142;5.364;2024-01-06T12:30:14;8.73;;;5.15;;
69594;SDS011;56800;52.142;5.364;2024-01-06T12:32:46;11.45;;;4.97;;
69594;SDS011;56800;52.142;5.364;2024-01-06T12:35:15;9.23;;;5.13;;
69594;SDS011;56800;52.142;5.364;2024-01-06T12:37:44;8.35;;;5.18;;
69594;SDS011;56800;52.142;5.364;2024-01-06T12:40:12;11.20;;;5.38;;
69594;SDS011;56800;52.142;5.364;2024-01-06T12:42:39;9.25;;;4.70;;
69594;SDS011;56800;52.142;5.364;2024-01-06T12:45:07;9.90;;;5.30;;
69594;SDS011;56800;52.142;5.364;2024-01-06T12:47:34;9.87;;;5.50;;
69594;SDS011;56800;52.142;5.364;2024-01-06T12:50:01;13.13;;;5.63;;
69594;SDS011;56800;52.142;5.364;2024-01-06T12:52:30;12.50;;;6.03;;
69594;SDS011;56800;52.142;5.364;2024-01-06T12:54:57;9.57;;;6.22;;
69594;SDS011;56800;52.142;5.364;2024-01-06T12:57:24;10.63;;;6.22;;
69594;SDS011;56800;52.142;5.364;2024-01-06T12:59:51;12.13;;;6.20;;
69594;SDS011;56800;52.142;5.364;2024-01-06T13:02:18;14.10;;;6.43;;
69594;SDS011;56800;52.142;5.364;2024-01-06T13:04:47;11.70;;;6.10;;
69594;SDS011;56800;52.142;5.364;2024-01-06T13:07:14;9.57;;;5.82;;
69594;SDS011;56800;52.142;5.364;2024-01-06T13:09:41;10.70;;;6.30;;
69594;SDS011;56800;52.142;5.364;2024-01-06T13:12:08;12.40;;;6.30;;
69594;SDS011;56800;52.142;5.364;2024-01-06T13:14:35;10.05;;;5.85;;
69594;SDS011;56800;52.142;5.364;2024-01-06T13:17:02;11.05;;;6.00;;
69594;SDS011;56800;52.142;5.364;2024-01-06T13:19:29;10.80;;;5.72;;
69594;SDS011;56800;52.142;5.364;2024-01-06T13:21:56;8.65;;;5.60;;
69594;SDS011;56800;52.142;5.364;2024-01-06T13:24:23;13.90;;;5.90;;
69594;SDS011;56800;52.142;5.364;2024-01-06T13:26:50;9.88;;;6.07;;
69594;SDS011;56800;52.142;5.364;2024-01-06T13:29:17;12.95;;;5.80;;
69594;SDS011;56800;52.142;5.364;2024-01-06T13:31:44;9.70;;;5.72;;
69594;SDS011;56800;52.142;5.364;2024-01-06T13:34:12;11.98;;;5.85;;
69594;SDS011;56800;52.142;5.364;2024-01-06T13:36:39;10.47;;;5.90;;
69594;SDS011;56800;52.142;5.364;2024-01-06T13:39:07;14.05;;;6.35;;
69594;SDS011;56800;52.142;5.364;2024-01-06T13:41:34;13.10;;;5.97;;
69594;SDS011;56800;52.142;5.364;2024-01-06T13:44:01;11.60;;;6.55;;
69594;SDS011;56800;52.142;5.364;2024-01-06T13:46:28;12.38;;;6.63;;
69594;SDS011;56800;52.142;5.364;2024-01-06T13:48:55;11.83;;;5.93;;
69594;SDS011;56800;52.142;5.364;2024-01-06T13:51:23;9.73;;;6.40;;
69594;SDS011;56800;52.142;5.364;2024-01-06T13:53:51;11.25;;;6.70;;
69594;SDS011;56800;52.142;5.364;2024-01-06T13:56:18;11.80;;;6.10;;
69594;SDS011;56800;52.142;5.364;2024-01-06T13:58:45;15.32;;;6.85;;
69594;SDS011;56800;52.142;5.364;2024-01-06T14:01:12;13.30;;;6.87;;
69594;SDS011;56800;52.142;5.364;2024-01-06T14:03:38;14.15;;;6.68;;
69594;SDS011;56800;52.142;5.364;2024-01-06T14:06:06;13.00;;;7.03;;
69594;SDS011;56800;52.142;5.364;2024-01-06T14:08:33;10.57;;;6.50;;
69594;SDS011;56800;52.142;5.364;2024-01-06T14:11:00;12.93;;;6.75;;
69594;SDS011;56800;52.142;5.364;2024-01-06T14:13:27;14.30;;;6.90;;
69594;SDS011;56800;52.142;5.364;2024-01-06T14:15:58;12.48;;;6.85;;
69594;SDS011;56800;52.142;5.364;2024-01-06T14:18:25;12.68;;;6.85;;
69594;SDS011;56800;52.142;5.364;2024-01-06T14:20:53;12.70;;;6.63;;
69594;SDS011;56800;52.142;5.364;2024-01-06T14:23:21;9.25;;;6.03;;
69594;SDS011;56800;52.142;5.364;2024-01-06T14:25:48;11.10;;;6.53;;
69594;SDS011;56800;52.142;5.364;2024-01-06T14:28:15;11.27;;;6.70;;
69594;SDS011;56800;52.142;5.364;2024-01-06T14:30:42;9.50;;;6.20;;
69594;SDS011;56800;52.142;5.364;2024-01-06T14:33:09;11.27;;;6.07;;
69594;SDS011;56800;52.142;5.364;2024-01-06T14:35:36;13.55;;;6.65;;
69594;SDS011;56800;52.142;5.364;2024-01-06T14:38:02;15.10;;;7.23;;
69594;SDS011;56800;52.142;5.364;2024-01-06T14:40:29;13.90;;;6.65;;
69594;SDS011;56800;52.142;5.364;2024-01-06T14:42:56;10.25;;;6.15;;